Aviation Digital Data Service (ADDS)

Output produced by METARs form (0328 UTC 30 May 2017)
found at http://www.aviationweather.gov/adds/metars/
 
TAF SKBQ 292300Z 3000/3024 32011KT 9999 SCT015 SCT080 
     TEMPO 3000/3002 8000 RA SCT015CB BKN070 
     BECMG 3003/3005 05011KT 
     TEMPO 3009/3013 4000 BCFG SCT010 
     TEMPO 30014/3017 15012KT 
     TEMPO 3019/3022 SCT020CB TX34/3019Z TN25/3011Z
       
TAF SKBO 292300Z 3000/3024 VRB02KT 9999 SCT020 
     TEMPO 3009/3012 8000 MIFG SCT015 
     BECMG 3014/3016 30012KT TX21/3018Z TN09/3011Z
       
TAF SKBG 292300Z 3000/3024 34009KT 9999 SCT015 SCT080 
     TEMPO 3000/3003 7000 TSRA VCFG SCT015CB BKN070 
     BECMG 3004/3006 VRB02KT 
     TEMPO 3006/3009 6000 VCFG RA 
     BECMG 3015/3017 34014KT TX27/3018Z TN18/3011Z
       
TAF SKCL 292300Z 3000/3024 32008KT 9999 FEW030 BKN120 
     BECMG 3004/3006 VRB02KT 
     TEMPO 3009/3013 8000 SCT030 
     BECMG 3016/3018 34014KT 
     TEMPO 3019/3022 8000 VCSH SCT017TCU TX32/3019Z TN18/3011Z
       
TAF SKCG 292300Z 3000/3024 05011KT 9999 SCT0015 SCT080 
     TEMPO 3000/3002 32008KT 8000 RA SCT015CB SCT070 
     TEMPO 3010/3013 8000 SCT010 
     BECMG 3014/3016 30014KT 
     TEMPO 3019/3022 SCT020CB TX33/3018Z TN26/3011Z
       
TAF SKCC 292300Z 3000/3024 VRB02KT 9999 SCT017 SCT080 
     TEMPO 3001/3004 16010KT 8000 RA SCT017TCU BKN070 
     TEMPO 3007/3011 8000 -RA VCFG SCT017TCU 
     TEMPO 3010/3013 6000 VCFG SCT010 
     BECMG 3015/3017 18014KT TX33/3018Z TN24/3011Z
       
TAF SKLT 292300Z 3000/3024 VRB02KT 9999 FEW020 SCT080 
     TEMPO 3000/3002 9000 -DZ SCT015 BKN080 
     TEMPO 3005/3009 CAVOK 
     PROB40 
     TEMPO 3010/3013 5000 BR DZ SCT010 
     TEMPO 3019/3022 8000 TSRA SCT015CB BKN070 TX33/3017Z TN23/3011Z
       
TAF SKRG 292300Z 3000/3024 VRB02 9999 SCT017 SCT080 
     TEMPO 3002/3005 8000 RA SCT015CB BKN070 
     TEMPO 3007/3011 6000 VCFG BKN015 
     BECMG 3015/3017 14012KT 
     TEMPO 3019/3022 SCT020CB TX24/3018Z TN13/3011Z
       
TAF SKPE 292300Z 3000/3024 09005KT 9999 SCT015 SCT080 
     TEMPO 3001/3003 8000 -DZ SCT015TCU BKN080 
     TEMPO 3010/3013 VRB02KT 6000 VCFG SCT009 
     TEMPO 3015/3019 8000 VCSH SCT015TCU TX26/3019Z TN17/3011Z
       
TAF SKSP 292300Z 3000/3024 08012KT 9999 FEW017 BKN300 
     TEMPO 3000/3003 8000 SHRA SCT015TCU OVC200 
     TEMPO 3005/3009 8000 -DZ SCT015 BKN200 TX31/3019Z TN26/3011Z